Time;durP1;ratioP1;P1;durP2;ratioP2;P2;SDS_P1;SDS_P2;PMS_P1;PMS_P2;Temp;Humidity;BMP_temperature;BMP_pressure;BME280_temperature;BME280_humidity;BME280_pressure;Samples;Min_cycle;Max_cycle;Signal;HPM_P1;HPM_P2
2022/10/23 00:00:22;;;;;;;19.98;8.95;;;;;;;;;;5054734;28;20045;-79
2022/10/23 00:02:52;;;;;;;25.50;10.38;;;;;;;;;;5055061;28;20118;-78
2022/10/23 00:05:19;;;;;;;20.70;9.43;;;;;;;;;;5054653;28;20448;-78
2022/10/23 00:07:45;;;;;;;17.05;9.40;;;;;;;;;;5054250;28;20076;-78
2022/10/23 00:10:11;;;;;;;21.15;10.05;;;;;;;;;;5054189;28;20048;-78
2022/10/23 00:12:37;;;;;;;22.83;9.88;;;;;;;;;;5054738;28;20531;-78
2022/10/23 00:15:04;;;;;;;17.63;10.10;;;;;;;;;;5054656;28;20080;-79
2022/10/23 00:17:31;;;;;;;21.98;9.73;;;;;;;;;;5054480;28;20041;-78
2022/10/23 00:19:57;;;;;;;19.75;10.43;;;;;;;;;;5053792;28;20408;-78
2022/10/23 00:22:23;;;;;;;21.20;10.05;;;;;;;;;;5054694;28;20081;-78
2022/10/23 00:24:49;;;;;;;22.95;10.80;;;;;;;;;;5054172;28;20072;-79
2022/10/23 00:27:15;;;;;;;22.40;10.82;;;;;;;;;;5054384;28;20045;-78
2022/10/23 00:29:43;;;;;;;23.27;10.73;;;;;;;;;;5054571;28;20037;-79
2022/10/23 00:32:09;;;;;;;21.98;11.38;;;;;;;;;;5054030;28;20049;-79
2022/10/23 00:34:35;;;;;;;18.98;11.30;;;;;;;;;;5054272;28;20056;-78
2022/10/23 00:37:01;;;;;;;20.70;11.35;;;;;;;;;;5052811;28;20045;-79
2022/10/23 00:39:27;;;;;;;19.48;10.13;;;;;;;;;;5045058;28;20049;-78
2022/10/23 00:41:53;;;;;;;19.63;10.90;;;;;;;;;;5045086;28;20041;-78
2022/10/23 00:44:19;;;;;;;21.38;11.75;;;;;;;;;;5053536;28;20040;-79
2022/10/23 00:46:45;;;;;;;24.33;11.60;;;;;;;;;;5053564;28;20049;-79
2022/10/23 00:49:12;;;;;;;23.00;11.60;;;;;;;;;;5053533;28;20049;-79
2022/10/23 00:51:40;;;;;;;22.45;10.23;;;;;;;;;;5053655;28;20045;-78
2022/10/23 00:54:06;;;;;;;26.95;11.35;;;;;;;;;;5054269;28;20434;-78
2022/10/23 00:56:34;;;;;;;20.08;10.95;;;;;;;;;;5053597;28;20048;-78
2022/10/23 00:59:00;;;;;;;18.80;10.70;;;;;;;;;;5053957;28;20053;-79
2022/10/23 01:01:26;;;;;;;24.85;11.60;;;;;;;;;;5053625;28;20048;-78
2022/10/23 01:03:52;;;;;;;20.88;10.73;;;;;;;;;;5053323;28;20045;-78
2022/10/23 01:06:21;;;;;;;20.48;10.63;;;;;;;;;;5053946;28;20041;-78
2022/10/23 01:08:53;;;;;;;18.30;10.70;;;;;;;;;;5053065;28;20049;-78
2022/10/23 01:11:21;;;;;;;22.45;10.45;;;;;;;;;;5053930;28;20044;-78
2022/10/23 01:13:57;;;;;;;22.70;11.07;;;;;;;;;;5053512;28;20504;-78
2022/10/23 01:16:41;;;;;;;18.13;10.88;;;;;;;;;;5053308;28;20052;-78
2022/10/23 01:19:12;;;;;;;21.00;12.00;;;;;;;;;;5053207;28;20052;-78
2022/10/23 01:21:53;;;;;;;20.80;11.75;;;;;;;;;;5042325;28;20515;-78
2022/10/23 01:24:19;;;;;;;28.02;12.90;;;;;;;;;;5050627;28;20063;-78
2022/10/23 01:27:04;;;;;;;23.63;12.25;;;;;;;;;;5053294;28;20458;-78
2022/10/23 01:29:39;;;;;;;22.30;12.38;;;;;;;;;;5052895;28;20051;-79
2022/10/23 01:32:09;;;;;;;23.13;13.95;;;;;;;;;;5052867;28;20060;-78
2022/10/23 01:34:41;;;;;;;25.52;13.40;;;;;;;;;;5052669;28;20099;-78
2022/10/23 01:37:08;;;;;;;25.10;12.82;;;;;;;;;;5048512;28;20381;-78
2022/10/23 01:39:37;;;;;;;26.52;13.93;;;;;;;;;;5033371;28;20041;-78
2022/10/23 01:42:07;;;;;;;27.90;13.38;;;;;;;;;;5033091;28;20042;-78
2022/10/23 01:44:41;;;;;;;22.67;13.18;;;;;;;;;;5044515;28;20086;-78
2022/10/23 01:47:08;;;;;;;21.00;13.27;;;;;;;;;;5053230;28;20044;-78
2022/10/23 01:49:35;;;;;;;25.05;12.90;;;;;;;;;;5053218;28;20095;-79
2022/10/23 01:52:05;;;;;;;22.23;13.52;;;;;;;;;;5051435;28;20045;-79
2022/10/23 01:54:33;;;;;;;26.85;13.43;;;;;;;;;;5052683;28;20045;-78
2022/10/23 01:56:59;;;;;;;23.75;13.52;;;;;;;;;;5052956;28;20045;-79
2022/10/23 01:59:29;;;;;;;23.48;13.75;;;;;;;;;;5041250;28;20487;-79
2022/10/23 02:01:56;;;;;;;22.58;12.70;;;;;;;;;;5036422;28;20040;-79
2022/10/23 02:04:45;;;;;;;24.73;13.07;;;;;;;;;;5053330;28;20397;-79
2022/10/23 02:07:11;;;;;;;23.13;13.48;;;;;;;;;;5053216;28;20100;-79
2022/10/23 02:09:37;;;;;;;23.92;13.32;;;;;;;;;;5052825;28;20052;-79
2022/10/23 02:12:07;;;;;;;22.70;14.80;;;;;;;;;;5052454;28;20377;-78
2022/10/23 02:14:38;;;;;;;23.05;13.63;;;;;;;;;;5038257;28;20042;-79
2022/10/23 02:17:08;;;;;;;26.10;13.55;;;;;;;;;;5039938;28;20376;-79
2022/10/23 02:19:43;;;;;;;25.40;14.18;;;;;;;;;;5038079;28;20045;-78
2022/10/23 02:22:16;;;;;;;26.05;14.85;;;;;;;;;;5032006;28;20484;-78
2022/10/23 02:24:53;;;;;;;26.60;14.25;;;;;;;;;;5032557;28;20444;-78
2022/10/23 02:27:30;;;;;;;25.45;13.98;;;;;;;;;;5033172;28;20046;-78
2022/10/23 02:29:58;;;;;;;24.65;14.23;;;;;;;;;;5054469;28;20488;-79
2022/10/23 02:32:26;;;;;;;26.30;14.27;;;;;;;;;;5049712;28;20068;-79
2022/10/23 02:34:52;;;;;;;25.02;14.40;;;;;;;;;;5034341;28;20168;-79
2022/10/23 02:37:18;;;;;;;27.00;14.50;;;;;;;;;;5033099;28;20073;-79
2022/10/23 02:39:44;;;;;;;30.27;14.90;;;;;;;;;;5033076;28;20168;-79
2022/10/23 02:42:23;;;;;;;26.77;15.95;;;;;;;;;;5033144;28;20107;-79
2022/10/23 02:44:55;;;;;;;24.85;14.35;;;;;;;;;;5039855;28;20064;-78
2022/10/23 02:47:21;;;;;;;26.58;15.55;;;;;;;;;;5055695;28;20511;-78
2022/10/23 02:49:50;;;;;;;22.65;14.88;;;;;;;;;;5056136;28;20049;-78
2022/10/23 02:52:16;;;;;;;25.55;15.45;;;;;;;;;;5054427;28;20079;-78
2022/10/23 02:54:54;;;;;;;25.20;14.73;;;;;;;;;;5055120;28;20044;-78
2022/10/23 02:57:24;;;;;;;25.52;15.35;;;;;;;;;;5056214;28;20048;-78
2022/10/23 02:59:56;;;;;;;30.23;15.68;;;;;;;;;;5054942;28;20048;-79
2022/10/23 03:02:25;;;;;;;25.42;14.88;;;;;;;;;;5055081;28;20083;-78
2022/10/23 03:04:52;;;;;;;26.98;14.70;;;;;;;;;;5055378;28;20583;-78
2022/10/23 03:07:18;;;;;;;24.58;14.15;;;;;;;;;;5055629;28;20045;-79
2022/10/23 03:09:45;;;;;;;30.23;15.13;;;;;;;;;;5055143;28;20091;-79
2022/10/23 03:12:11;;;;;;;26.17;14.50;;;;;;;;;;5054643;28;20068;-79
2022/10/23 03:14:37;;;;;;;23.73;14.18;;;;;;;;;;5055659;28;20143;-79
2022/10/23 03:17:03;;;;;;;23.55;14.52;;;;;;;;;;5054298;28;20045;-79
2022/10/23 03:19:29;;;;;;;23.15;14.07;;;;;;;;;;5056080;28;20041;-79
2022/10/23 03:21:55;;;;;;;26.60;13.18;;;;;;;;;;5055977;28;20056;-79
2022/10/23 03:24:21;;;;;;;23.05;13.82;;;;;;;;;;5055585;28;20049;-78
2022/10/23 03:26:48;;;;;;;22.58;13.43;;;;;;;;;;5054020;28;20098;-78
2022/10/23 03:29:14;;;;;;;21.90;12.60;;;;;;;;;;5035829;28;20073;-79
2022/10/23 03:31:40;;;;;;;24.52;12.95;;;;;;;;;;5045749;28;20037;-79
2022/10/23 03:34:09;;;;;;;23.38;13.55;;;;;;;;;;5054286;28;20045;-79
2022/10/23 03:36:36;;;;;;;21.25;13.43;;;;;;;;;;5055284;28;20119;-79
2022/10/23 03:39:02;;;;;;;19.75;13.18;;;;;;;;;;5055959;28;20049;-79
2022/10/23 03:41:28;;;;;;;18.00;11.85;;;;;;;;;;5053950;28;20053;-78
2022/10/23 03:43:54;;;;;;;21.17;13.52;;;;;;;;;;5054934;28;20436;-79
2022/10/23 03:46:21;;;;;;;21.80;13.73;;;;;;;;;;5055033;28;20044;-78
2022/10/23 03:48:47;;;;;;;20.25;12.95;;;;;;;;;;5055075;28;20037;-78
2022/10/23 03:51:13;;;;;;;22.58;12.73;;;;;;;;;;5054018;28;20044;-79
2022/10/23 03:53:39;;;;;;;22.95;13.25;;;;;;;;;;5055368;28;20127;-79
2022/10/23 03:56:05;;;;;;;18.73;12.63;;;;;;;;;;5054984;28;20041;-79
2022/10/23 03:58:31;;;;;;;20.60;13.15;;;;;;;;;;5054507;28;20381;-78
2022/10/23 04:00:57;;;;;;;25.52;14.43;;;;;;;;;;5055351;28;20041;-79
2022/10/23 04:03:23;;;;;;;24.52;14.85;;;;;;;;;;5055098;28;20048;-79
2022/10/23 04:05:49;;;;;;;21.20;14.05;;;;;;;;;;5054578;28;20073;-78
2022/10/23 04:08:15;;;;;;;22.35;14.25;;;;;;;;;;5054207;28;20049;-78
2022/10/23 04:10:41;;;;;;;24.75;14.43;;;;;;;;;;5054381;28;20060;-79
2022/10/23 04:13:07;;;;;;;21.45;13.65;;;;;;;;;;5053046;28;20436;-78
2022/10/23 04:15:33;;;;;;;23.55;13.77;;;;;;;;;;5054238;28;20381;-79
2022/10/23 04:17:59;;;;;;;21.33;14.05;;;;;;;;;;5054849;28;20048;-79
2022/10/23 04:20:25;;;;;;;26.67;15.77;;;;;;;;;;5054991;28;20052;-79
2022/10/23 04:22:51;;;;;;;20.52;14.88;;;;;;;;;;5054345;28;20055;-78
2022/10/23 04:25:17;;;;;;;23.33;14.73;;;;;;;;;;5053944;28;20045;-79
2022/10/23 04:27:43;;;;;;;24.23;15.50;;;;;;;;;;5053732;28;20488;-79
2022/10/23 04:30:10;;;;;;;24.98;15.20;;;;;;;;;;5054041;28;20041;-79
2022/10/23 04:32:36;;;;;;;22.30;16.00;;;;;;;;;;5036277;28;20041;-78
2022/10/23 04:35:02;;;;;;;23.58;15.32;;;;;;;;;;5054237;28;20414;-79
2022/10/23 04:37:28;;;;;;;22.42;15.90;;;;;;;;;;5054468;28;20053;-79
2022/10/23 04:39:54;;;;;;;21.88;15.27;;;;;;;;;;5053927;28;20420;-79
2022/10/23 04:42:20;;;;;;;24.58;15.60;;;;;;;;;;5053876;28;20037;-78
2022/10/23 04:44:46;;;;;;;21.70;14.75;;;;;;;;;;5053560;28;20110;-79
2022/10/23 04:47:12;;;;;;;21.90;14.57;;;;;;;;;;5053928;28;20045;-79
2022/10/23 04:49:38;;;;;;;23.25;15.43;;;;;;;;;;5054096;28;20487;-79
2022/10/23 04:52:04;;;;;;;23.90;15.88;;;;;;;;;;5052157;28;20102;-79
2022/10/23 04:54:35;;;;;;;25.30;15.90;;;;;;;;;;5053850;28;20048;-79
2022/10/23 04:57:01;;;;;;;26.15;16.08;;;;;;;;;;5053748;28;20039;-78
2022/10/23 04:59:27;;;;;;;24.20;15.43;;;;;;;;;;5053358;28;20496;-79
2022/10/23 05:01:53;;;;;;;23.50;15.63;;;;;;;;;;5036233;28;20084;-79
2022/10/23 05:04:19;;;;;;;22.08;16.02;;;;;;;;;;5034413;28;20176;-79
2022/10/23 05:06:45;;;;;;;24.90;17.17;;;;;;;;;;5049360;28;20061;-79
2022/10/23 05:09:11;;;;;;;24.75;16.15;;;;;;;;;;5033037;28;20472;-79
2022/10/23 05:11:37;;;;;;;26.13;15.75;;;;;;;;;;5033482;28;20485;-79
2022/10/23 05:14:03;;;;;;;27.10;16.67;;;;;;;;;;5052290;28;20106;-79
2022/10/23 05:16:38;;;;;;;23.35;15.68;;;;;;;;;;5053980;28;20492;-79
2022/10/23 05:19:05;;;;;;;25.17;16.05;;;;;;;;;;5053317;28;20518;-79
2022/10/23 05:21:32;;;;;;;22.60;15.73;;;;;;;;;;5053544;28;20122;-80
2022/10/23 05:24:00;;;;;;;26.02;16.35;;;;;;;;;;5054331;28;20052;-79
2022/10/23 05:26:26;;;;;;;24.73;15.98;;;;;;;;;;5051765;28;20424;-79
2022/10/23 05:28:52;;;;;;;29.33;17.27;;;;;;;;;;5053366;28;20561;-79
2022/10/23 05:31:19;;;;;;;24.20;16.83;;;;;;;;;;5053181;28;20077;-79
2022/10/23 05:33:47;;;;;;;25.67;16.23;;;;;;;;;;5051899;28;20072;-79
2022/10/23 05:36:14;;;;;;;24.90;16.40;;;;;;;;;;5053160;28;20147;-79
2022/10/23 05:38:40;;;;;;;27.77;16.80;;;;;;;;;;5052092;28;20049;-79
2022/10/23 05:41:06;;;;;;;26.75;17.63;;;;;;;;;;5053171;28;20472;-79
2022/10/23 05:43:32;;;;;;;27.58;17.63;;;;;;;;;;5052943;28;20044;-79
2022/10/23 05:45:58;;;;;;;28.27;16.88;;;;;;;;;;5053657;28;20048;-79
2022/10/23 05:48:24;;;;;;;23.63;15.68;;;;;;;;;;5054048;28;20084;-78
2022/10/23 05:50:50;;;;;;;27.83;16.77;;;;;;;;;;5055776;28;20092;-79
2022/10/23 05:53:16;;;;;;;23.90;16.15;;;;;;;;;;5056427;28;20041;-81
2022/10/23 05:55:42;;;;;;;31.98;16.38;;;;;;;;;;5053834;28;20404;-80
2022/10/23 05:58:08;;;;;;;26.02;16.13;;;;;;;;;;5052563;28;20049;-80
2022/10/23 06:00:34;;;;;;;28.48;17.48;;;;;;;;;;5052462;28;20049;-80
2022/10/23 06:03:01;;;;;;;31.25;18.65;;;;;;;;;;5034830;28;20045;-80
2022/10/23 06:05:27;;;;;;;28.02;16.73;;;;;;;;;;5052609;28;20515;-79
2022/10/23 06:07:57;;;;;;;26.45;17.48;;;;;;;;;;5053080;28;20076;-79
2022/10/23 06:10:23;;;;;;;30.88;18.52;;;;;;;;;;5052376;28;20411;-79
2022/10/23 06:12:50;;;;;;;29.30;17.08;;;;;;;;;;5040953;28;20563;-81
2022/10/23 06:15:17;;;;;;;31.75;19.48;;;;;;;;;;5041924;28;20087;-81
2022/10/23 06:17:43;;;;;;;27.13;18.20;;;;;;;;;;5052774;28;20045;-81
2022/10/23 06:20:09;;;;;;;30.58;18.33;;;;;;;;;;5044697;28;20051;-81
2022/10/23 06:22:35;;;;;;;31.95;18.15;;;;;;;;;;5058691;28;20152;-81
2022/10/23 06:25:01;;;;;;;29.63;19.00;;;;;;;;;;5056308;28;20048;-81
2022/10/23 06:27:27;;;;;;;29.23;18.05;;;;;;;;;;5055196;28;20045;-81
2022/10/23 06:29:53;;;;;;;29.00;19.27;;;;;;;;;;5056461;28;20048;-81
2022/10/23 06:32:19;;;;;;;29.98;19.80;;;;;;;;;;5056247;28;20055;-81
2022/10/23 06:34:45;;;;;;;38.40;19.98;;;;;;;;;;5055632;28;20128;-82
2022/10/23 06:37:11;;;;;;;29.50;18.60;;;;;;;;;;5057381;28;20045;-80
2022/10/23 06:39:39;;;;;;;32.60;17.85;;;;;;;;;;5056393;28;20438;-80
2022/10/23 06:42:05;;;;;;;27.95;18.27;;;;;;;;;;5056359;28;20045;-81
2022/10/23 06:44:31;;;;;;;30.10;18.60;;;;;;;;;;5056427;28;20056;-81
2022/10/23 06:46:59;;;;;;;31.25;18.67;;;;;;;;;;5056532;28;20041;-81
2022/10/23 06:49:25;;;;;;;32.08;20.05;;;;;;;;;;5056763;28;20045;-81
2022/10/23 06:51:51;;;;;;;30.38;19.58;;;;;;;;;;5055269;28;20147;-83
2022/10/23 06:54:17;;;;;;;33.22;18.95;;;;;;;;;;5056395;28;20544;-81
2022/10/23 06:56:43;;;;;;;35.45;20.45;;;;;;;;;;5056139;28;20084;-80
2022/10/23 06:59:09;;;;;;;33.40;19.60;;;;;;;;;;5058011;28;20045;-83
2022/10/23 07:01:35;;;;;;;35.10;19.20;;;;;;;;;;5054981;28;20049;-80
2022/10/23 07:04:01;;;;;;;36.97;20.45;;;;;;;;;;5056930;28;20045;-81
2022/10/23 07:06:27;;;;;;;33.33;20.67;;;;;;;;;;5056322;28;20056;-81
2022/10/23 07:08:53;;;;;;;31.90;18.58;;;;;;;;;;5037851;28;20135;-81
2022/10/23 07:11:19;;;;;;;31.00;19.30;;;;;;;;;;5054921;28;20053;-85
2022/10/23 07:13:45;;;;;;;33.97;19.55;;;;;;;;;;5055818;28;20151;-83
2022/10/23 07:16:19;;;;;;;30.20;19.60;;;;;;;;;;5056200;28;20044;-82
2022/10/23 07:18:46;;;;;;;34.83;20.25;;;;;;;;;;5055751;28;20063;-81
2022/10/23 07:21:12;;;;;;;31.73;21.25;;;;;;;;;;5035865;28;20045;-84
2022/10/23 07:23:38;;;;;;;37.45;19.95;;;;;;;;;;5034907;28;20041;-86
2022/10/23 07:26:09;;;;;;;35.22;19.23;;;;;;;;;;5036132;28;20049;-86
2022/10/23 07:28:35;;;;;;;35.22;19.88;;;;;;;;;;5035878;28;20057;-86
2022/10/23 07:31:01;;;;;;;33.70;20.08;;;;;;;;;;5033468;28;20511;-84
2022/10/23 07:33:27;;;;;;;32.83;19.60;;;;;;;;;;5035705;28;20092;-85
2022/10/23 07:35:54;;;;;;;34.05;20.10;;;;;;;;;;5035466;28;20081;-85
2022/10/23 07:38:20;;;;;;;34.42;20.60;;;;;;;;;;5035514;28;20084;-85
2022/10/23 07:40:46;;;;;;;35.17;20.42;;;;;;;;;;5035459;28;20381;-85
2022/10/23 07:43:12;;;;;;;34.85;19.88;;;;;;;;;;5035426;28;20048;-85
2022/10/23 07:45:38;;;;;;;34.95;20.80;;;;;;;;;;5035283;28;20047;-85
2022/10/23 07:48:04;;;;;;;34.05;20.00;;;;;;;;;;5051008;28;20110;-85
2022/10/23 07:50:30;;;;;;;32.80;19.65;;;;;;;;;;5053685;28;20437;-85
2022/10/23 07:52:57;;;;;;;31.27;19.27;;;;;;;;;;5055047;28;20614;-85
2022/10/23 07:55:23;;;;;;;30.23;19.58;;;;;;;;;;5055115;28;20053;-85
2022/10/23 07:57:49;;;;;;;29.60;18.95;;;;;;;;;;5054794;28;20049;-85
2022/10/23 08:00:15;;;;;;;34.92;19.60;;;;;;;;;;5055020;28;20045;-85
2022/10/23 08:02:41;;;;;;;32.47;19.55;;;;;;;;;;5054958;28;20045;-85
2022/10/23 08:05:07;;;;;;;33.25;18.23;;;;;;;;;;5054836;28;20037;-85
2022/10/23 08:07:34;;;;;;;32.30;18.55;;;;;;;;;;5054724;28;20399;-85
2022/10/23 08:10:00;;;;;;;35.55;20.58;;;;;;;;;;5055359;28;20059;-85
2022/10/23 08:12:26;;;;;;;30.27;18.73;;;;;;;;;;5055354;28;20079;-85
2022/10/23 08:14:52;;;;;;;27.33;17.98;;;;;;;;;;5054953;28;20205;-85
2022/10/23 08:17:18;;;;;;;27.30;17.70;;;;;;;;;;5054906;28;20049;-85
2022/10/23 08:19:46;;;;;;;32.25;18.23;;;;;;;;;;5055085;28;20071;-85
2022/10/23 08:22:12;;;;;;;31.45;19.30;;;;;;;;;;5054194;28;20041;-85
2022/10/23 08:24:38;;;;;;;34.70;19.15;;;;;;;;;;5053755;28;20044;-85
2022/10/23 08:27:04;;;;;;;30.65;17.80;;;;;;;;;;5055194;28;20484;-85
2022/10/23 08:29:30;;;;;;;32.97;18.13;;;;;;;;;;5055165;28;20045;-85
2022/10/23 08:31:56;;;;;;;34.35;18.48;;;;;;;;;;5054317;28;20048;-85
2022/10/23 08:34:24;;;;;;;27.77;17.60;;;;;;;;;;5054173;28;20514;-85
2022/10/23 08:36:50;;;;;;;31.98;19.50;;;;;;;;;;5053678;28;20041;-85
2022/10/23 08:39:16;;;;;;;31.45;18.08;;;;;;;;;;5054534;28;20087;-85
2022/10/23 08:41:47;;;;;;;29.67;17.58;;;;;;;;;;5054405;28;20134;-85
2022/10/23 08:44:18;;;;;;;29.20;18.50;;;;;;;;;;5054747;28;20049;-85
2022/10/23 08:46:49;;;;;;;25.70;16.45;;;;;;;;;;5054844;28;20049;-85
2022/10/23 08:49:33;;;;;;;28.13;18.17;;;;;;;;;;5054738;28;20102;-85
2022/10/23 08:52:01;;;;;;;27.90;17.13;;;;;;;;;;5053999;28;20080;-85
2022/10/23 08:54:40;;;;;;;28.10;16.83;;;;;;;;;;5054208;28;20095;-84
2022/10/23 08:57:12;;;;;;;30.40;16.88;;;;;;;;;;5054207;28;20399;-85
2022/10/23 08:59:45;;;;;;;25.75;15.85;;;;;;;;;;5054001;28;20040;-83
2022/10/23 09:02:16;;;;;;;25.80;15.43;;;;;;;;;;5048305;28;20072;-85
2022/10/23 09:04:43;;;;;;;21.15;15.50;;;;;;;;;;5053168;28;20126;-84
2022/10/23 09:07:09;;;;;;;33.95;16.73;;;;;;;;;;5053059;28;20527;-84
2022/10/23 09:09:41;;;;;;;21.58;15.75;;;;;;;;;;5053310;28;20053;-87
2022/10/23 09:12:15;;;;;;;21.98;15.80;;;;;;;;;;5049157;28;20052;-84
2022/10/23 09:15:07;;;;;;;22.70;14.55;;;;;;;;;;5057568;28;20045;-85
2022/10/23 09:17:39;;;;;;;23.30;15.35;;;;;;;;;;5054733;28;20048;-84
2022/10/23 09:20:22;;;;;;;22.88;15.80;;;;;;;;;;5053934;28;20040;-84
2022/10/23 09:22:49;;;;;;;20.77;14.98;;;;;;;;;;5053469;28;20134;-84
2022/10/23 09:25:18;;;;;;;21.42;14.30;;;;;;;;;;5053432;28;20443;-85
2022/10/23 09:27:46;;;;;;;24.42;14.80;;;;;;;;;;5053661;28;20547;-84
2022/10/23 09:30:12;;;;;;;21.50;14.15;;;;;;;;;;5052352;28;20120;-84
2022/10/23 09:32:38;;;;;;;19.27;14.02;;;;;;;;;;5047478;28;20048;-84
2022/10/23 09:35:05;;;;;;;20.67;12.90;;;;;;;;;;5049445;28;20041;-84
2022/10/23 09:37:34;;;;;;;20.88;13.45;;;;;;;;;;5042668;28;20048;-84
2022/10/23 09:40:20;;;;;;;18.23;13.63;;;;;;;;;;5051405;28;20041;-84
2022/10/23 09:42:51;;;;;;;20.98;13.57;;;;;;;;;;5051585;28;20060;-84
2022/10/23 09:45:25;;;;;;;18.20;13.25;;;;;;;;;;5048426;28;20103;-84
2022/10/23 09:47:51;;;;;;;20.08;13.20;;;;;;;;;;5042684;28;20099;-84
2022/10/23 09:50:20;;;;;;;19.75;13.15;;;;;;;;;;5049947;28;20045;-84
2022/10/23 09:52:51;;;;;;;21.05;13.05;;;;;;;;;;5053049;28;20072;-84
2022/10/23 09:55:19;;;;;;;17.95;11.95;;;;;;;;;;5054811;28;20131;-84
2022/10/23 09:57:45;;;;;;;18.80;12.45;;;;;;;;;;5057203;28;20057;-86
2022/10/23 10:00:19;;;;;;;20.80;12.23;;;;;;;;;;5057494;28;20055;-83
2022/10/23 10:03:06;;;;;;;17.25;11.50;;;;;;;;;;5056480;28;20650;-85
2022/10/23 10:05:36;;;;;;;19.30;11.63;;;;;;;;;;5057471;28;20543;-85
2022/10/23 10:08:02;;;;;;;20.70;11.90;;;;;;;;;;5056964;28;20043;-84
2022/10/23 10:10:29;;;;;;;19.52;12.25;;;;;;;;;;5057677;28;20052;-84
2022/10/23 10:13:01;;;;;;;18.20;11.52;;;;;;;;;;5058835;28;20060;-84
2022/10/23 10:15:27;;;;;;;20.42;12.15;;;;;;;;;;5056824;28;20045;-85
2022/10/23 10:17:58;;;;;;;19.38;11.98;;;;;;;;;;5056400;28;20361;-85
2022/10/23 10:20:37;;;;;;;19.42;11.77;;;;;;;;;;5057682;28;20372;-84
2022/10/23 10:23:07;;;;;;;15.98;11.48;;;;;;;;;;5057884;28;20048;-84
2022/10/23 10:25:39;;;;;;;15.68;10.82;;;;;;;;;;5057925;28;20036;-84
2022/10/23 10:28:24;;;;;;;17.38;11.32;;;;;;;;;;5058601;28;20052;-83
2022/10/23 10:31:12;;;;;;;16.42;9.90;;;;;;;;;;5063562;28;20216;-84
2022/10/23 10:33:43;;;;;;;16.65;10.75;;;;;;;;;;5065780;28;20459;-84
2022/10/23 10:36:19;;;;;;;16.08;10.20;;;;;;;;;;5066348;28;20071;-84
2022/10/23 10:38:45;;;;;;;16.85;10.27;;;;;;;;;;5058430;28;20441;-83
2022/10/23 10:41:30;;;;;;;19.60;10.18;;;;;;;;;;5059829;28;20114;-84
2022/10/23 10:44:04;;;;;;;14.38;9.93;;;;;;;;;;5054769;28;20408;-84
2022/10/23 10:46:42;;;;;;;15.57;10.15;;;;;;;;;;5056287;28;20103;-84
2022/10/23 10:49:17;;;;;;;15.15;9.80;;;;;;;;;;5056173;28;20052;-84
2022/10/23 10:51:51;;;;;;;13.48;8.95;;;;;;;;;;5056485;28;20041;-84
2022/10/23 10:54:35;;;;;;;12.65;8.38;;;;;;;;;;5056326;28;20056;-85
2022/10/23 10:57:04;;;;;;;13.77;9.07;;;;;;;;;;5055949;28;20091;-85
2022/10/23 10:59:31;;;;;;;11.80;8.57;;;;;;;;;;5055419;28;20508;-85
2022/10/23 11:02:19;;;;;;;13.85;8.57;;;;;;;;;;5049122;28;20100;-85
2022/10/23 11:04:50;;;;;;;13.15;8.10;;;;;;;;;;5036175;28;20046;-83
2022/10/23 11:07:20;;;;;;;12.32;7.93;;;;;;;;;;5043273;28;20041;-83
2022/10/23 11:09:46;;;;;;;11.40;8.40;;;;;;;;;;5055589;28;20063;-83
2022/10/23 11:12:23;;;;;;;11.68;7.43;;;;;;;;;;5055504;28;20049;-84
2022/10/23 11:14:50;;;;;;;12.77;7.97;;;;;;;;;;5047882;28;20083;-83
2022/10/23 11:17:27;;;;;;;11.25;7.32;;;;;;;;;;5055608;28;20041;-85
2022/10/23 11:19:53;;;;;;;11.00;7.28;;;;;;;;;;5055521;28;20052;-86
2022/10/23 11:22:25;;;;;;;12.70;7.65;;;;;;;;;;5055204;28;20045;-83
2022/10/23 11:25:11;;;;;;;11.27;7.10;;;;;;;;;;5055144;28;20049;-85
2022/10/23 11:28:15;;;;;;;10.07;7.20;;;;;;;;;;5038769;28;20056;-85
2022/10/23 11:31:00;;;;;;;11.70;7.20;;;;;;;;;;5035031;28;20511;-85
2022/10/23 11:33:38;;;;;;;12.02;7.03;;;;;;;;;;5037810;28;20037;-85
2022/10/23 11:36:15;;;;;;;13.20;7.85;;;;;;;;;;5018555;28;20057;-85
2022/10/23 11:38:42;;;;;;;12.02;6.65;;;;;;;;;;5041644;28;20045;-86
2022/10/23 11:41:19;;;;;;;8.65;6.00;;;;;;;;;;5037357;28;20041;-85
2022/10/23 11:43:54;;;;;;;9.73;6.10;;;;;;;;;;5037261;28;20056;-85
2022/10/23 11:46:25;;;;;;;12.80;6.60;;;;;;;;;;5036866;28;20100;-85
2022/10/23 11:48:52;;;;;;;15.30;5.85;;;;;;;;;;5020574;28;20050;-85
2022/10/23 11:51:29;;;;;;;8.88;5.55;;;;;;;;;;5029473;28;20044;-85
2022/10/23 11:54:23;;;;;;;8.93;5.13;;;;;;;;;;5034642;28;20045;-85
2022/10/23 11:56:55;;;;;;;10.50;5.53;;;;;;;;;;5043119;28;20041;-85
2022/10/23 11:59:34;;;;;;;9.07;5.30;;;;;;;;;;5035299;28;20049;-85
2022/10/23 12:02:02;;;;;;;9.32;5.50;;;;;;;;;;5049350;28;20136;-85
2022/10/23 12:04:34;;;;;;;7.07;5.00;;;;;;;;;;5056657;28;20460;-85
2022/10/23 12:07:03;;;;;;;7.50;4.97;;;;;;;;;;5060780;28;20411;-85
2022/10/23 12:09:36;;;;;;;7.40;5.32;;;;;;;;;;5057894;28;20103;-85
2022/10/23 12:12:02;;;;;;;9.02;5.53;;;;;;;;;;5057271;28;20041;-84
2022/10/23 12:14:33;;;;;;;7.53;5.32;;;;;;;;;;5056103;28;20548;-86
2022/10/23 12:16:59;;;;;;;10.35;5.05;;;;;;;;;;5037939;28;20098;-86
2022/10/23 12:19:30;;;;;;;13.13;5.28;;;;;;;;;;5053213;28;20176;-85
2022/10/23 12:22:01;;;;;;;10.50;5.53;;;;;;;;;;5057026;28;20157;-86
2022/10/23 12:24:40;;;;;;;11.43;5.45;;;;;;;;;;5056452;28;20052;-86
2022/10/23 12:27:20;;;;;;;8.88;5.78;;;;;;;;;;5055506;28;20040;-85
2022/10/23 12:29:55;;;;;;;8.10;5.32;;;;;;;;;;5053318;28;20056;-81
2022/10/23 12:32:24;;;;;;;8.95;5.13;;;;;;;;;;5034462;28;20163;-83
2022/10/23 12:35:00;;;;;;;8.00;5.13;;;;;;;;;;5034492;28;20541;-82
2022/10/23 12:37:50;;;;;;;8.48;5.40;;;;;;;;;;5041373;28;20095;-82
2022/10/23 12:40:16;;;;;;;8.57;4.60;;;;;;;;;;5053118;28;20049;-82
2022/10/23 12:42:49;;;;;;;6.88;4.43;;;;;;;;;;5063488;28;20118;-83
2022/10/23 12:45:18;;;;;;;8.98;4.45;;;;;;;;;;5062143;28;20124;-83
2022/10/23 12:47:45;;;;;;;7.50;4.47;;;;;;;;;;5054727;28;20047;-82
2022/10/23 12:50:22;;;;;;;5.82;4.43;;;;;;;;;;5054440;28;20053;-83
2022/10/23 12:53:07;;;;;;;7.53;4.68;;;;;;;;;;5053978;28;20037;-83
2022/10/23 12:55:48;;;;;;;6.65;4.32;;;;;;;;;;5054489;28;20045;-82
2022/10/23 12:58:21;;;;;;;7.90;4.50;;;;;;;;;;5062850;28;20126;-85
2022/10/23 13:00:55;;;;;;;8.35;4.68;;;;;;;;;;5049184;28;20055;-85
2022/10/23 13:03:22;;;;;;;6.78;4.43;;;;;;;;;;5054273;28;20424;-86
2022/10/23 13:05:49;;;;;;;6.85;4.70;;;;;;;;;;5054787;28;20474;-86
2022/10/23 13:08:16;;;;;;;5.70;4.30;;;;;;;;;;5053487;28;20091;-86
2022/10/23 13:10:42;;;;;;;7.47;4.20;;;;;;;;;;5053778;28;20049;-86
2022/10/23 13:13:10;;;;;;;11.05;4.95;;;;;;;;;;5054298;28;20480;-82
2022/10/23 13:15:38;;;;;;;7.03;4.47;;;;;;;;;;5053441;28;20052;-82
2022/10/23 13:18:05;;;;;;;8.90;4.35;;;;;;;;;;5053594;28;20048;-82
2022/10/23 13:20:36;;;;;;;6.13;4.40;;;;;;;;;;5051817;28;20047;-82
2022/10/23 13:23:11;;;;;;;7.22;4.70;;;;;;;;;;5053604;28;20041;-82
2022/10/23 13:25:38;;;;;;;7.43;4.38;;;;;;;;;;5050873;28;20048;-82
2022/10/23 13:28:07;;;;;;;8.30;4.55;;;;;;;;;;5051913;28;20040;-82
2022/10/23 13:30:38;;;;;;;11.38;5.13;;;;;;;;;;5046543;28;20143;-82
2022/10/23 13:33:22;;;;;;;8.63;4.57;;;;;;;;;;5050478;28;20116;-82
2022/10/23 13:36:20;;;;;;;7.40;4.70;;;;;;;;;;5041234;28;20099;-83
2022/10/23 13:38:47;;;;;;;6.97;4.68;;;;;;;;;;5039231;28;20048;-82
2022/10/23 13:41:15;;;;;;;7.80;4.93;;;;;;;;;;5045678;28;20456;-82
2022/10/23 13:43:41;;;;;;;8.90;4.72;;;;;;;;;;5038797;28;20045;-82
2022/10/23 13:46:17;;;;;;;7.43;4.85;;;;;;;;;;5051750;28;20045;-82
2022/10/23 13:48:44;;;;;;;11.00;5.50;;;;;;;;;;5052848;28;20045;-82
2022/10/23 13:51:19;;;;;;;7.95;5.10;;;;;;;;;;5050365;28;20045;-82
2022/10/23 13:53:45;;;;;;;6.88;4.75;;;;;;;;;;5046408;28;20072;-82
2022/10/23 13:56:11;;;;;;;7.18;4.75;;;;;;;;;;5033067;28;20049;-82
2022/10/23 13:58:38;;;;;;;9.65;4.68;;;;;;;;;;5033182;28;20049;-82
2022/10/23 14:01:04;;;;;;;5.88;4.30;;;;;;;;;;5031872;28;20064;-82
2022/10/23 14:03:30;;;;;;;15.30;5.32;;;;;;;;;;5032857;28;20053;-83
2022/10/23 14:05:56;;;;;;;8.82;5.47;;;;;;;;;;5047499;28;20373;-82
2022/10/23 14:08:22;;;;;;;10.40;5.32;;;;;;;;;;5052766;28;20127;-83
2022/10/23 14:10:48;;;;;;;8.20;5.22;;;;;;;;;;5052904;28;20045;-81
2022/10/23 14:13:14;;;;;;;11.77;5.50;;;;;;;;;;5051728;28;20060;-82
2022/10/23 14:15:40;;;;;;;8.52;4.90;;;;;;;;;;5052887;28;20095;-81
2022/10/23 14:18:06;;;;;;;9.32;4.80;;;;;;;;;;5051539;28;20094;-81
2022/10/23 14:20:32;;;;;;;7.90;4.53;;;;;;;;;;5052210;28;20492;-81
2022/10/23 14:22:58;;;;;;;11.80;5.18;;;;;;;;;;5034413;28;20052;-82
2022/10/23 14:25:24;;;;;;;9.45;4.97;;;;;;;;;;5052412;28;20048;-82
2022/10/23 14:27:50;;;;;;;7.70;4.50;;;;;;;;;;5052653;28;20040;-82
2022/10/23 14:30:16;;;;;;;7.40;4.45;;;;;;;;;;5052650;28;20045;-82
2022/10/23 14:32:43;;;;;;;8.18;4.50;;;;;;;;;;5052466;28;20049;-82
2022/10/23 14:35:09;;;;;;;8.75;4.72;;;;;;;;;;5043717;28;20045;-84